Raul Flores

Olheiro-Chefe - Juan Aurich
3 Dez 2028
Domingo
Processo

Personalidade

Adaptabilidade (6) Ambição (13) Controvérsia (3) Lealdade (11) Pressão (5) Profissionalismo (14) Espírito Esportivo (19) Temperamento (18)

Perfil

Estilo de Treinamento Democrático
Licença Continental A
Determinação 5
Gestão de Pessoas 6
Motivação 4
Disciplina 8
Satisfação no Trabalho
100%
Fadiga
0%
Função Olheiro-Chefe
Salário 67.7K p/s
Contrato 14.03.2030

Desempenho

Comportamento Bom
Eficácia do Treinamento
31%
Desenvolvimento do Jogador
50%
Prevenção de Lesões
30%
Implementação Tática
20%

Eventos Recentes

Participou de uma reunião de recrutamento 14d atrás
Participou de uma reunião de recrutamento 21d atrás
Participou de uma reunião de recrutamento 28d atrás
Participou de uma reunião de recrutamento 35d atrás
Participou de uma reunião de recrutamento 42d atrás
Participou de uma reunião de recrutamento 49d atrás
Aniversário 49d atrás
Participou de uma reunião de recrutamento 56d atrás

Monitorando agora

152
Jogador Clube Status Habilidade Confiança Observado Última observação Último voto
Ryan Graydon Salford City Ativo 112 / 114 40% 10 29.05.2028 -
Kimarni Smith Newport County Ativo 95 / 100 40% 3 29.05.2028 -
Vyacheslav Grulev Nizhniy Novgorod Ativo 115 / 109 40% 6 28.05.2028 -
Louis Flower Crawley Town Ativo 99 / 92 40% 2 28.05.2028 -
Miro Arsenal Tula Ativo 112 / 129 40% 8 27.05.2028 -
Emanuele Schimmenti Potenza Ativo 118 / 118 40% 7 25.05.2028 -
Louis Appéré Cambridge United Ativo 111 / 105 40% 6 25.05.2028 -
André Shinyashiki Plymouth Argyle Ativo 103 / 101 40% 2 25.05.2028 -
Jack Vale Sorrento Ativo 94 / 99 40% 7 24.05.2028 -
Guillaume Furrer Lecco Ativo 118 / 96 40% 1 23.05.2028 -
Gabriele Gori Ascoli Ativo 110 / 106 40% 3 22.05.2028 -
Tyler Roberts Mansfield Town Ativo 98 / 94 40% 4 21.05.2028 -
Thomas Schlupp BA All Stars Ativo 106 / 124 40% 6 19.05.2028 -
Kylian Kouassi Colchester United Ativo 98 / 109 40% 1 16.05.2028 -
Matty Stevens AFC Wimbledon Ativo 119 / 115 40% 7 14.05.2028 -
Emanuele Scipioni Monopoli Ativo 111 / 100 40% 2 14.05.2028 -
Luca Vido Union Brescia Ativo 107 / 119 40% 3 09.05.2028 -
Joshua Ajala Walsall Ativo 111 / 101 40% 3 08.05.2028 -
Gennaro Tutino Sampdoria Ativo 118 / 134 40% 1 08.05.2028 -
Kyle Wootton Stockport County Ativo 124 / 124 40% 4 07.05.2028 -
Layton Stewart Barnet Ativo 109 / 108 40% 2 07.05.2028 -
Wesley Pomba Rukh Ativo 117 / 111 40% 3 06.05.2028 -
Timur Suleimanov Nizhniy Novgorod Ativo 129 / 131 40% 2 06.05.2028 -
Gianluca D'Auria Potenza Ativo 97 / 95 40% 1 06.05.2028 -
Paolo Yrizar Chernomorets Ativo 88 / 100 40% 5 04.05.2028 -
Seidu Basit Ashanti Gold Ativo 94 / 114 40% 6 02.05.2028 -
Nicola Rauti Vicenza Ativo 113 / 102 40% 1 28.04.2028 -
Danny Butterworth Accrington Stanley Ativo 103 / 89 40% 1 28.04.2028 -
Bashar Musa US Forces Armees Ativo 80 / 88 40% 3 27.04.2028 -
Calum Kavanagh Oldham Athletic Ativo 114 / 103 40% 3 27.04.2028 -
Justin Obikwu Queens Park Rangers Ativo 102 / 121 40% 1 23.04.2028 -
Brayan Gil Baltika Ativo 133 / 137 40% 2 22.04.2028 -
Alan Cisnero Exeter City Ativo 93 / 110 40% 4 20.04.2028 -
Mikhail Ignatov Sochi Ativo 121 / 120 40% 5 20.04.2028 -
Anthony Scully Shrewsbury Town Ativo 89 / 100 40% 2 18.04.2028 -
Samuel Kalu Botev Plovdiv Ativo 129 / 123 40% 4 15.04.2028 -
Marco Tumminello Benevento Ativo 124 / 113 40% 2 13.04.2028 -
Johnson Amuzu Medeama Ativo 99 / 99 40% 1 13.04.2028 -
Matthias Phaëton CSKA Sofia Ativo 109 / 121 40% 2 12.04.2028 -
Kelly Saravanan Veracruz Ativo 124 / 107 40% 1 10.04.2028 -
Fábio Jaló Barnsley Ativo 103 / 116 40% 1 08.04.2028 -
Aaron Drinan Swindon Town Ativo 115 / 108 40% 1 05.04.2028 -
Luis Caicedo Spartak 1918 Ativo 93 / 109 40% 4 30.03.2028 -
Tyler Walton Bromley Ativo 99 / 80 40% 1 30.03.2028 -
Simone Mazzocchi Cosenza Ativo 129 / 113 40% 2 27.03.2028 -
Harry Leonard Rukh Ativo 107 / 109 40% 4 21.03.2028 -
Ioannis Pittas CSKA Sofia Ativo 118 / 109 40% 3 20.03.2028 -
Vegard Erlien Tromso Ativo 129 / 116 40% 1 19.03.2028 -
Igor Neves Paysandu Ativo 103 / 104 40% 1 17.03.2028 -
Victor Adeboyejo Cotonsport Garoua Ativo 101 / 95 40% 2 16.03.2028 -
Papa Ndiaga Yade Oleksandriya Ativo 100 / 110 40% 1 15.03.2028 -
Matías Contrera Hrvatski Dragovoljac Ativo 103 / 103 40% 1 10.03.2028 -
Jalal Abdullai Molde Ativo 131 / 125 40% 1 09.03.2028 -
Vladislav Sarveli Nizhniy Novgorod Ativo 113 / 115 40% 2 07.03.2028 -
Ole Sæter Valerenga Ativo 122 / 128 40% 1 06.03.2028 -
Erik Botheim Viking Ativo 140 / 112 40% 4 05.03.2028 -
Juan Pablo Ramírez Chernomorets Ativo 87 / 89 40% 2 03.03.2028 -
Sergio Riffo Kolkheti Ativo 102 / 100 40% 5 29.02.2028 -
Dato Mchedlidze Tskhinvali Ativo 99 / 101 40% 2 29.02.2028 -
Luca Meirelles Kudrivka Ativo 121 / 130 40% 3 25.02.2028 -
Pedro Marques Apollon Ativo 122 / 112 40% 1 25.02.2028 -
Stephen Humphrys Bradford City Ativo 124 / 116 40% 2 24.02.2028 -
Mohamed Ofkir Valerenga Ativo 108 / 112 40% 1 20.02.2028 -
François Kamano Sochi Ativo 116 / 130 40% 1 20.02.2028 -
Indiana Vassilev Philadelphia Union Ativo 118 / 113 40% 2 19.02.2028 -
Timo Werner San Jose Earthquakes Ativo 134 / 118 40% 2 18.02.2028 -
Vladimir Khubulov Dinamo Makhachkala Ativo 99 / 119 40% 1 12.02.2028 -
Sagir Arce Saburtalo Ativo 112 / 115 40% 1 11.02.2028 -
Leandro Suhr Boston River Ativo 115 / 111 40% 2 10.02.2028 -
Nahuel Sena Cerro Ativo 109 / 107 40% 1 10.02.2028 -
Jonás Luna Wanderers Ativo 128 / 132 40% 1 10.02.2028 -
Federico Martínez MFK Ruzomberok Ativo 132 / 115 40% 6 08.02.2028 -
Alejo Cruz Juventud Ativo 127 / 121 40% 1 08.02.2028 -
Ivo Costantino River Plate Ativo 108 / 110 40% 1 08.02.2028 -
Juan Mendoza Güemes Ativo 98 / 98 40% 1 05.01.2028 -
Lautaro Gordillo Colegiales Ativo 108 / 114 40% 1 05.01.2028 -
Lorent Tolaj Plymouth Argyle Ativo 117 / 113 40% 2 28.06.2027 -
Malik Mothersille Stockport County Ativo 114 / 119 40% 1 14.06.2027 -
Matej Trusa DAC Dunajska Streda Ativo 129 / 128 40% 3 31.12.2026 -
Yeangel Montero Naxxar Lions Ativo 104 / 93 40% 1 26.11.2026 -
Gabriel Monjes Hamrun Spartans Ativo 82 / 97 40% 1 22.11.2026 -
Brayan Alcócer Oleksandriya Ativo 94 / 100 40% 1 21.11.2026 -
Luka Jović CFR Cluj Ativo 147 / 146 40% 2 20.11.2026 -
Armstrong Oko-Flex Levski Ativo 123 / 103 40% 6 18.11.2026 -
Germán Berterame Inter Miami CF Ativo 121 / 128 40% 2 17.11.2026 -
Marcos Cuenca Zaragoza Ativo 107 / 113 40% 6 16.11.2026 -
Martin Sekulić Ural Ativo 115 / 121 40% 3 16.11.2026 -
Job Ochieng Real Sociedad Ativo 93 / 98 40% 2 14.11.2026 -
Callum Robinson Poltava Ativo 119 / 107 40% 1 14.11.2026 -
Rodrigo Mosqueira Stjarnan Ativo 102 / 122 40% 6 13.11.2026 -
Jorge Gonzalez Viitorul Ativo 88 / 99 40% 2 12.11.2026 -
Petar Musa FC Dallas Ativo 125 / 141 40% 1 12.11.2026 -
Ammar Ramadan DAC Dunajska Streda Ativo 134 / 127 40% 4 11.11.2026 -
Marcelo Torres Gimnasia La Plata Ativo 116 / 118 40% 7 10.11.2026 -
Jáder Valencia Deportes Tolima Ativo 117 / 108 40% 1 09.11.2026 -
David Mazuch FK Senica Ativo 104 / 92 40% 1 01.11.2026 -
Kwadwo Duah Ludogorets Ativo 137 / 133 40% 4 30.10.2026 -
Nicolás Sosa Racing Ativo 120 / 119 40% 2 29.10.2026 -
Denzel Jubitana Neftchi Ativo 126 / 119 40% 1 28.10.2026 -
Dylan Cabral Arsenal Ativo 94 / 95 40% 2 27.10.2026 -
Gaspar Duarte Rosario Central Ativo 110 / 118 40% 1 23.10.2026 -
Adalberto Peñaranda Deportivo Tachira Ativo 118 / 114 40% 6 19.10.2026 -
Mustapha Sangaré Levski Ativo 113 / 132 40% 2 19.10.2026 -
Julen Lobete Málaga Ativo 111 / 103 40% 1 19.10.2026 -
Daniel Nikolic Haladas Ativo 101 / 92 40% 1 16.10.2026 -
Alejandro Rincon Llaneros Ativo 96 / 93 40% 2 11.10.2026 -
Mohamed Konaté Akhmat Grozny Ativo 113 / 97 40% 1 11.10.2026 -
César Magallan Estudiantes de Merida Ativo 105 / 107 40% 3 07.10.2026 -
Albin Andersson Falkenberg Ativo 111 / 104 40% 1 07.10.2026 -
Rafael Arace Caracas Ativo 100 / 108 40% 2 06.10.2026 -
Brandon Hanlan Doncaster Rovers Ativo 100 / 104 40% 1 04.10.2026 -
José Rivas Gamboa Trujillanos Ativo 97 / 105 40% 3 28.09.2026 -
Marco Bustillo Zamora Ativo 105 / 105 40% 2 26.09.2026 -
Ramiro Ruiz Rodríguez Atlético Tucumán Ativo 127 / 125 40% 6 24.09.2026 -
Mauricio Márquez Caracas Ativo 103 / 93 40% 3 23.09.2026 -
Thiago Ponce Rosario Central Ativo 90 / 104 40% 1 23.09.2026 -
Carlos Ramírez Zulia Ativo 104 / 90 40% 3 20.09.2026 -
Luciano Inverso Betis Ativo 97 / 125 40% 1 19.09.2026 -
Gonzalo Tapia Palestino Ativo 106 / 94 40% 2 17.09.2026 -
Maximo Ingravidi Colón Ativo 99 / 109 40% 1 17.09.2026 -
Nahuel Roldán Deportivo La Coruña Ativo 90 / 98 40% 1 16.09.2026 -
Diego Méndez Tacuarembo Ativo 100 / 84 40% 2 14.09.2026 -
Alberto Benítez Villalba Torpedo Kutaisi Ativo 103 / 95 40% 3 13.09.2026 -
Jonathan Cañete Portuguesa Ativo 115 / 102 40% 3 12.09.2026 -
Timothy Zechariah Rivers United Ativo 100 / 100 40% 1 12.09.2026 -
José Pérez Portuguesa Ativo 99 / 86 40% 1 11.09.2026 -
Richard Celis Zamora Ativo 104 / 107 40% 2 08.09.2026 -
Ronny Maza Aragua Ativo 91 / 108 40% 2 08.09.2026 -
Tobías Ganduglia Independiente Rivadavia Ativo 96 / 97 40% 1 08.09.2026 -
Genaro Rossi San Martín SJ Ativo 109 / 103 40% 3 03.09.2026 -
Fabián Ahumada Samtredia Ativo 79 / 104 40% 1 02.09.2026 -
Lucas González Nacional Ativo 110 / 106 40% 2 01.09.2026 -
Ronaldo Peña Deportivo Lara Ativo 97 / 94 40% 3 01.09.2026 -
Alexander Rondón Oliveros Deportivo Tachira Ativo 95 / 96 40% 1 31.08.2026 -
Rodrigo Pollero Deportivo Tachira Ativo 111 / 99 40% 3 30.08.2026 -
Maksim Samorodov Akhmat Grozny Ativo 109 / 127 40% 1 30.08.2026 -
Dávid Ďuriš Rosenborg Ativo 118 / 132 40% 1 29.08.2026 -
Junior Paredes Trujillanos Ativo 105 / 112 40% 1 27.08.2026 -
Rafael Moreno Atletico Venezuela Ativo 110 / 114 40% 1 27.08.2026 -
Eryc Castillo Alianza Lima Ativo 112 / 130 40% 1 20.08.2026 -
Miguel Celis Estudiantes de Merida Ativo 93 / 96 40% 1 18.08.2026 -
Jeriel De Santis Caracas Ativo 103 / 111 40% 1 16.08.2026 -
Exon Arzú Carabobo Ativo 100 / 101 40% 2 15.08.2026 -
José Balza Deportivo Tachira Ativo 104 / 109 40% 1 15.08.2026 -
Italo Regalado Cesar Vallejo Ativo 110 / 108 40% 1 11.08.2026 -
Richard Figueroa Deportivo Lara Ativo 109 / 95 40% 1 04.08.2026 -
Kyle Joseph Middlesbrough Ativo 101 / 111 40% 1 04.08.2026 -
Santiago González Sporting Cristal Ativo 121 / 126 40% 1 04.08.2026 -
Alexander Guerra Estudiantes de Merida Ativo 96 / 88 40% 1 04.08.2026 -
Nicolás Contín Gimnasia y Tiro Ativo 110 / 108 40% 1 01.08.2026 -
Octavio Bianchi Gimnasia y Esgrima Ativo 111 / 105 40% 1 01.08.2026 -
Emiliano González Almagro Ativo 120 / 104 40% 1 01.08.2026 -